Weather observations for the past three days for
Detroit, Willow Run Airport
| Date | Time (edt) | Wind (mph) | Vis. (mi.) | Weather | Sky Cond. | Temperature (ºF) | Relative Humidity | Wind Chill (°F) | Heat Index (°F) | Pressure | Precipitation (in) | ||||||
|---|---|---|---|---|---|---|---|---|---|---|---|---|---|---|---|---|---|
| Air | Dwpt | 6 hour | altimeter (in) | sea level (mb) | 1 hr | 3 hr | 6 hr | ||||||||||
| Max. | Min. | ||||||||||||||||
| 05 | 06:53 | NE 7 | 10.00 | Overcast | BKN020 OVC025 | 69.1 | 66 | 90% | 29.96 | 0.0 | |||||||
| 05 | 05:53 | NE 3 | 10.00 | Overcast | OVC021 | 69.1 | 66.9 | 93% | 29.96 | 0.0 | |||||||
| 05 | 04:53 | NE 6 | 7.00 | Overcast | BKN009 OVC050 | 69.1 | 68 | 96% | 29.96 | 0.0 | |||||||
| 05 | 03:53 | NE 3 | 5.00 | Fog/Mist | OVC006 | 70 | 68 | 93% | 29.95 | 0.0 | |||||||
| 05 | 02:53 | NE 3 | 4.00 | Fog/Mist | BKN008 | 71.1 | 69.1 | 94% | 29.94 | 0.0 | |||||||
| 05 | 01:53 | NE 5 | 4.00 | Fog/Mist | FEW060 FEW075 | 71.1 | 70 | 96% | 29.95 | 0.0 | |||||||
| 05 | 00:53 | NE 5 | 10.00 | Overcast | BKN070 OVC080 | 71.1 | 70 | 96% | 29.95 | 0.0 | |||||||
| 04 | 23:53 | Calm | 10.00 | NULL | NULL | 73 | 70 | 90% | 29.97 | 0.0 | |||||||
| 03 | 15:53 | NW 3 | 10.00 | Thunderstorm | SCT070 BKN100 | 84.9 | 73 | 68% | 92 | 29.93 | 1012.5 | ||||||
| 03 | 14:53 | S 8 | 10.00 | Partly Cloudy | SCT110 | 87.1 | 72 | 61% | 94 | 29.93 | 1012.8 | ||||||
| 03 | 13:53 | SE 7 | 10.00 | Fair | CLR | 84.9 | 72 | 84.9 | 72 | 65% | 91 | 29.95 | 1013.3 | ||||
| 03 | 12:53 | E 8 | 10.00 | Fair | CLR | 82.9 | 72 | 70% | 88 | 29.96 | 1013.6 | ||||||
| 03 | 11:53 | NW 7 | 10.00 | A Few Clouds | FEW120 | 79 | 72 | 79% | 82 | 29.99 | 1014.8 | ||||||
| 03 | 10:53 | S 5 | 8.00 | Light Rain | FEW021 BKN110 | 78.1 | 73.9 | 87% | 81 | 29.97 | 1013.9 | ||||||
| 03 | 09:53 | SW 3 | 10.00 | Fair | CLR | 80.1 | 73 | 79% | 84 | 29.96 | 1013.8 | ||||||
| 03 | 08:53 | Calm | 10.00 | Fair | CLR | 75.9 | 69.1 | 79% | 77 | 29.97 | 1014.1 | ||||||
| 03 | 07:53 | Calm | 9.00 | Fair | CLR | 72 | 68 | 73.9 | 70 | 87% | 29.98 | 1014.3 | |||||
| 03 | 06:53 | Calm | 10.00 | Fair | CLR | 71.1 | 66.9 | 87% | 29.96 | 1013.6 | |||||||
| 03 | 05:53 | Calm | 10.00 | Fair | CLR | 71.1 | 66.9 | 87% | 29.96 | 1013.6 | |||||||
| 03 | 04:53 | S 3 | 10.00 | Fair | CLR | 72 | 66.9 | 84% | 29.95 | 1013.1 | |||||||
| 03 | 03:53 | SE 5 | 10.00 | Mostly Cloudy | BKN022 | 73.9 | 66.9 | 79% | 29.95 | 1013.4 | |||||||
| 03 | 02:53 | W 3 | 10.00 | Fair | CLR | 73.9 | 66 | 76% | 29.94 | 1013.0 | |||||||
| 03 | 00:53 | SE 6 | 10.00 | Partly Cloudy | FEW055 SCT120 | 75 | 66 | 74% | 76 | 29.94 | 1012.9 | ||||||
| 02 | 23:53 | N 9 G 28 | 10.00 | Thunderstorm in Vicinity | SCT031 SCT055 BKN070 | 75.9 | 64.9 | 69% | 78 | 29.96 | 1013.4 | ||||||
| 02 | 22:53 | SW 7 | 10.00 | Fair | CLR | 81 | 73.9 | 79% | 86 | 29.92 | 1012.2 | ||||||
| 02 | 21:53 | SW 8 | 10.00 | Fair | CLR | 82 | 73.9 | 77% | 88 | 29.93 | 1012.4 | ||||||
| 02 | 20:53 | SW 8 | 10.00 | Fair | CLR | 84 | 73.9 | 72% | 91 | 29.91 | 1012.0 | ||||||
| 02 | 19:53 | SW 14 | 10.00 | Fair | CLR | 88 | 72 | 96.1 | 88 | 59% | 95 | 29.91 | 1011.9 | ||||
| 02 | 18:53 | SW 14 | 10.00 | Fair | CLR | 91.9 | 70 | 49% | 98 | 29.9 | 1011.6 | ||||||
| 02 | 17:53 | SW 18 | 10.00 | Fair | CLR | 93.9 | 69.1 | 44% | 99 | 29.9 | 1011.6 | ||||||
| 02 | 16:53 | SW 21 | 10.00 | Partly Cloudy and Breezy | SCT090 | 95 | 68 | 41% | 100 | 29.91 | 1012.1 | ||||||
| 02 | 15:53 | W 17 G 26 | 10.00 | Fair | CLR | 96.1 | 68 | 40% | 101 | 29.93 | 1012.7 | ||||||
| 02 | 14:53 | SW 15 | 10.00 | Fair | CLR | 96.1 | 70 | 43% | 103 | 29.95 | 1013.1 | ||||||
| 02 | 13:53 | SW 13 | 10.00 | A Few Clouds | FEW075 FEW090 | 95 | 71.1 | 95 | 72 | 46% | 102 | 29.96 | 1013.7 | ||||
| 02 | 12:53 | SW 13 G 21 | 10.00 | A Few Clouds | FEW085 | 93 | 70 | 47% | 99 | 29.98 | 1014.2 | ||||||
| 02 | 11:53 | SW 12 | 10.00 | Fair | CLR | 90 | 71.1 | 54% | 96 | 29.99 | 1014.7 | ||||||
| 02 | 10:53 | SW 12 | 10.00 | Fair | CLR | 86 | 73 | 65% | 93 | 29.99 | 1014.7 | ||||||
| 02 | 09:53 | SW 7 | 10.00 | Fair | CLR | 81 | 73 | 77% | 86 | 29.99 | 1014.7 | ||||||
| 02 | 08:53 | SW 7 | 8.00 | Fair | CLR | 77 | 73 | 88% | 78 | 29.99 | 1014.8 | ||||||
| 02 | 07:53 | Calm | 5.00 | Fog/Mist | CLR | 72 | 71.1 | 73.9 | 71.1 | 97% | 29.98 | 1014.5 | |||||
| Date | Time (edt) | Wind (mph) | Vis. (mi.) | Weather | Sky Cond. | Air | Dwpt | Max. | Min. | Relative Humidity | Wind Chill (°F) | Heat Index (°F) | altimeter (in) | sea level (mb) | 1 hr | 3 hr | 6 hr |
| 6 hour | |||||||||||||||||
| Temperature (ºF) | Pressure | Precipitation (in) | |||||||||||||||